Glendive, Montana
Current Conditions -  °F | °C
As of 4:35 PM on Wednesday 22 Oct 2014 (Local Time) from KGDV Reporting Station
Clear Clear  
Wind Chill: 61°   Ceiling: Unl
Heat Index: 61°   Visibility: 10mi
Dew Point: 30°   Wind: 16mph
Humidity: 31%   Direction: 270°W
Pressure: 29.9"   Gusts: 25mph
Location:  47.11°N, 104.71°W
Report Text: KGDV 222235Z AUTO 27014G22KT 10SM CLR 16/M01 A2990 RMK AO1
Loading
Personal Weather Stations






























Interactive Weather Map
Tropical Storm Tracking
New forecast layout! Learn more

10-Day Weather Forecast

Advertisements
Track Severe Weather on mobile